createdAt,value
2023-04-01T00:03:29.142Z,100052.94
2023-04-01T00:05:59.132Z,100053.38
2023-04-01T00:08:29.290Z,100054.25
2023-04-01T00:11:12.808Z,100073.13
2023-04-01T00:13:48.283Z,100064.31
2023-04-01T00:16:22.219Z,100054.38
2023-04-01T00:19:09.121Z,100055.13
2023-04-01T00:21:41.761Z,100060.84
2023-04-01T00:24:16.089Z,100064.03
2023-04-01T00:26:46.457Z,100061.38
2023-04-01T00:29:13.357Z,100071.50
2023-04-01T00:31:40.464Z,100078.22
2023-04-01T00:34:43.707Z,100074.53
2023-04-01T00:37:14.842Z,100075.06
2023-04-01T00:39:41.848Z,100076.94
2023-04-01T00:42:17.436Z,100083.94
2023-04-01T00:44:58.790Z,100071.47
2023-04-01T00:47:33.494Z,100083.00
2023-04-01T00:50:03.431Z,100074.84
2023-04-01T00:52:32.638Z,100080.81
2023-04-01T00:55:15.764Z,100086.09
2023-04-01T00:57:44.948Z,100074.88
2023-04-01T01:00:22.745Z,100076.47
2023-04-01T01:02:52.418Z,100079.88
2023-04-01T01:05:49.439Z,100072.56
2023-04-01T01:08:41.177Z,100069.38
2023-04-01T01:11:15.181Z,100057.31
2023-04-01T01:14:05.990Z,100068.06
2023-04-01T01:16:50.205Z,100067.66
2023-04-01T01:19:56.637Z,100071.25
2023-04-01T01:23:14.849Z,100070.06
2023-04-01T01:26:18.185Z,100072.09
2023-04-01T01:29:26.885Z,100059.50
2023-04-01T01:32:35.630Z,100061.03
2023-04-01T01:35:20.483Z,100069.38
2023-04-01T01:38:16.011Z,100072.06
2023-04-01T01:40:53.440Z,100059.00
2023-04-01T01:43:27.369Z,100071.16
2023-04-01T01:45:58.344Z,100077.31
2023-04-01T01:48:43.892Z,100067.72
2023-04-01T01:51:14.345Z,100070.69
2023-04-01T01:53:42.181Z,100069.53
2023-04-01T01:56:42.829Z,100069.41
2023-04-01T01:59:40.973Z,100067.50
2023-04-01T02:02:12.702Z,100067.97
2023-04-01T02:04:42.638Z,100069.38
2023-04-01T02:07:18.587Z,100058.53
2023-04-01T02:09:48.384Z,100057.13
2023-04-01T02:12:18.165Z,100061.09
2023-04-01T02:14:49.292Z,100055.81
2023-04-01T02:17:27.856Z,100054.13
2023-04-01T02:20:16.660Z,100058.25
2023-04-01T02:23:00.918Z,100050.75
2023-04-01T02:25:32.213Z,100054.31
2023-04-01T02:28:01.954Z,100067.06
2023-04-01T02:30:31.218Z,100058.47
2023-04-01T02:33:01.218Z,100062.44
2023-04-01T02:35:34.925Z,100061.34
2023-04-01T02:38:03.288Z,100062.59
2023-04-01T02:40:50.842Z,100057.75
2023-04-01T02:43:18.657Z,100058.09
2023-04-01T02:45:45.832Z,100067.03
2023-04-01T02:48:14.062Z,100067.91
2023-04-01T02:50:50.170Z,100061.63
2023-04-01T02:53:20.080Z,100067.88
2023-04-01T02:55:51.909Z,100071.03
2023-04-01T02:58:22.678Z,100077.19
2023-04-01T03:00:52.768Z,100068.94
2023-04-01T03:03:22.732Z,100063.69
2023-04-01T03:05:57.449Z,100063.47
2023-04-01T03:08:27.353Z,100066.88
2023-04-01T03:10:54.407Z,100064.56
2023-04-01T03:13:34.281Z,100056.16
2023-04-01T03:16:09.746Z,100065.50
2023-04-01T03:18:36.643Z,100074.66
2023-04-01T03:21:31.279Z,100078.53
2023-04-01T03:24:01.226Z,100080.06
2023-04-01T03:26:31.237Z,100080.06
2023-04-01T03:29:04.688Z,100085.41
2023-04-01T03:31:56.297Z,100085.28
2023-04-01T03:37:11.399Z,100101.97
2023-04-01T03:39:47.227Z,100102.25
2023-04-01T03:42:14.194Z,100105.41
2023-04-01T03:44:47.590Z,100106.63
2023-04-01T03:47:30.253Z,100101.31
2023-04-01T03:49:57.170Z,100100.84
2023-04-01T03:52:24.106Z,100097.56
2023-04-01T03:54:50.973Z,100093.91
2023-04-01T03:57:18.073Z,100102.19
2023-04-01T04:00:03.711Z,100100.63
2023-04-01T04:02:33.516Z,100099.00
2023-04-01T04:05:02.948Z,100116.50
2023-04-01T04:10:30.808Z,100108.00
2023-04-01T04:13:10.878Z,100106.78
2023-04-01T04:15:42.675Z,100111.50
2023-04-01T04:18:23.294Z,100113.88
2023-04-01T04:21:14.601Z,100131.94
2023-04-01T04:23:52.519Z,100119.00
2023-04-01T04:26:28.890Z,100123.22
2023-04-01T04:29:07.381Z,100121.84
2023-04-01T04:31:59.307Z,100130.38
2023-04-01T04:34:45.682Z,100126.13
2023-04-01T04:37:38.608Z,100122.34
2023-04-01T04:40:11.116Z,100128.91
2023-04-01T04:42:47.274Z,100128.06
2023-04-01T04:45:37.870Z,100126.81
2023-04-01T04:48:20.117Z,100129.09
2023-04-01T04:51:03.707Z,100136.44
2023-04-01T04:53:34.579Z,100139.81
2023-04-01T04:56:06.037Z,100141.97
2023-04-01T04:58:46.084Z,100139.72
2023-04-01T05:01:32.318Z,100142.47
2023-04-01T05:04:13.224Z,100142.03
2023-04-01T05:06:47.400Z,100147.78
2023-04-01T05:09:26.331Z,100151.78
2023-04-01T05:11:53.410Z,100157.75
2023-04-01T05:14:36.326Z,100158.72
2023-04-01T05:17:25.342Z,100163.16
2023-04-01T05:19:52.527Z,100162.50
2023-04-01T05:22:19.922Z,100156.72
2023-04-01T05:24:52.847Z,100160.03
2023-04-01T05:27:19.867Z,100163.53
2023-04-01T05:29:49.241Z,100162.00
2023-04-01T05:32:19.175Z,100158.31
2023-04-01T05:34:52.068Z,100168.91
2023-04-01T05:37:21.938Z,100164.13
2023-04-01T05:39:49.309Z,100170.59
2023-04-01T05:42:18.587Z,100167.72
2023-04-01T05:44:45.738Z,100170.34
2023-04-01T05:47:12.625Z,100174.00
2023-04-01T05:49:43.370Z,100176.72
2023-04-01T05:52:10.216Z,100179.19
2023-04-01T05:54:42.679Z,100176.84
2023-04-01T05:57:14.376Z,100181.22
2023-04-01T05:59:41.432Z,100183.03
2023-04-01T06:02:12.599Z,100186.72
2023-04-01T06:04:52.501Z,100191.88
2023-04-01T06:07:20.261Z,100185.44
2023-04-01T06:09:50.300Z,100186.59
2023-04-01T06:12:53.268Z,100194.78
2023-04-01T06:15:37.812Z,100195.75
2023-04-01T06:18:35.881Z,100188.84
2023-04-01T06:21:43.352Z,100194.13
2023-04-01T06:27:44.644Z,100191.38
2023-04-01T06:30:46.220Z,100191.75
2023-04-01T06:33:39.261Z,100197.91
2023-04-01T06:36:43.976Z,100201.81
2023-04-01T06:39:42.870Z,100205.50
2023-04-01T06:43:03.369Z,100210.44
2023-04-01T06:45:52.497Z,100216.03
2023-04-01T06:48:42.718Z,100215.72
2023-04-01T06:52:00.832Z,100223.47
2023-04-01T06:54:42.368Z,100219.53
2023-04-01T07:00:35.535Z,100222.31
2023-04-01T07:03:27.858Z,100213.53
2023-04-01T07:06:05.289Z,100212.03
2023-04-01T07:08:37.880Z,100214.75
2023-04-01T07:14:06.114Z,100210.06
2023-04-01T07:17:04.608Z,100212.75
2023-04-01T07:19:51.339Z,100220.63
2023-04-01T07:22:41.504Z,100219.47
2023-04-01T07:25:35.877Z,100218.19
2023-04-01T07:28:25.505Z,100224.06
2023-04-01T07:31:17.836Z,100212.16
2023-04-01T07:34:23.913Z,100223.97
2023-04-01T07:37:17.772Z,100221.31
2023-04-01T07:40:03.714Z,100222.88
2023-04-01T07:42:57.438Z,100226.63
2023-04-01T07:45:37.456Z,100223.63
2023-04-01T07:48:30.025Z,100216.91
2023-04-01T07:51:30.521Z,100218.53
2023-04-01T07:54:21.232Z,100215.59
2023-04-01T07:57:38.286Z,100220.91
2023-04-01T08:00:29.414Z,100217.88
2023-04-01T08:03:16.359Z,100217.44
2023-04-01T08:06:41.175Z,100215.31
2023-04-01T08:09:45.069Z,100222.03
2023-04-01T08:12:18.790Z,100208.75
2023-04-01T08:15:10.260Z,100214.19
2023-04-01T08:18:00.557Z,100219.28
2023-04-01T08:20:53.944Z,100220.19
2023-04-01T08:23:28.429Z,100219.50
2023-04-01T08:26:17.457Z,100214.34
2023-04-01T08:29:02.199Z,100214.09
2023-04-01T08:31:55.398Z,100211.31
2023-04-01T08:34:29.148Z,100214.97
2023-04-01T08:37:06.838Z,100209.28
2023-04-01T08:39:43.516Z,100210.22
2023-04-01T08:43:03.210Z,100203.28
2023-04-01T08:46:01.525Z,100213.34
2023-04-01T08:48:47.754Z,100210.44
2023-04-01T08:52:00.352Z,100207.50
2023-04-01T08:54:56.713Z,100205.56
2023-04-01T08:57:56.826Z,100209.53
2023-04-01T09:01:11.765Z,100219.81
2023-04-01T09:04:24.018Z,100222.47
2023-04-01T09:07:42.606Z,100222.84
2023-04-01T09:10:47.199Z,100225.59
2023-04-01T09:13:39.502Z,100214.00
2023-04-01T09:16:45.484Z,100215.75
2023-04-01T09:19:31.638Z,100220.66
2023-04-01T09:22:25.146Z,100216.84
2023-04-01T09:25:26.292Z,100213.78
2023-04-01T09:28:24.962Z,100216.97
2023-04-01T09:31:11.810Z,100214.16
2023-04-01T09:33:44.646Z,100210.31
2023-04-01T09:39:28.353Z,100202.09
2023-04-01T09:42:10.538Z,100196.03
2023-04-01T09:44:42.971Z,100197.88
2023-04-01T09:47:47.111Z,100203.44
2023-04-01T09:50:35.443Z,100202.88
2023-04-01T09:53:50.569Z,100201.56
2023-04-01T09:56:55.371Z,100199.47
2023-04-01T09:59:53.832Z,100202.28
2023-04-01T10:02:57.773Z,100201.03
2023-04-01T10:05:27.946Z,100189.84
2023-04-01T10:08:26.841Z,100195.06
2023-04-01T10:11:18.916Z,100195.91
2023-04-01T10:14:25.693Z,100189.78
2023-04-01T10:17:12.138Z,100189.00
2023-04-01T10:20:03.820Z,100187.00
2023-04-01T10:23:12.868Z,100178.47
2023-04-01T10:26:26.217Z,100180.94
2023-04-01T10:29:34.896Z,100163.38
2023-04-01T10:32:29.027Z,100163.97
2023-04-01T10:35:39.244Z,100156.75
2023-04-01T10:38:16.138Z,100164.97
2023-04-01T10:41:20.959Z,100155.97
2023-04-01T10:44:14.654Z,100159.56
2023-04-01T10:46:44.710Z,100156.50
2023-04-01T10:49:25.942Z,100155.75
2023-04-01T10:52:02.297Z,100152.13
2023-04-01T10:55:22.007Z,100151.47
2023-04-01T10:58:29.169Z,100149.09
2023-04-01T11:01:31.173Z,100142.59
2023-04-01T11:04:24.456Z,100140.94
2023-04-01T11:07:00.429Z,100137.69
2023-04-01T11:10:00.915Z,100138.88
2023-04-01T11:13:12.033Z,100134.75
2023-04-01T11:16:10.377Z,100132.44
2023-04-01T11:19:01.689Z,100122.56
2023-04-01T11:21:47.194Z,100118.63
2023-04-01T11:24:40.579Z,100119.41
2023-04-01T11:27:49.431Z,100127.94
2023-04-01T11:30:43.592Z,100115.06
2023-04-01T11:33:54.396Z,100119.09
2023-04-01T11:36:46.500Z,100110.75
2023-04-01T11:39:31.591Z,100101.47
2023-04-01T11:42:17.318Z,100113.50
2023-04-01T11:45:38.305Z,100108.59
2023-04-01T11:48:05.383Z,100105.91
2023-04-01T11:50:50.209Z,100109.16
2023-04-01T11:53:45.838Z,100102.00
2023-04-01T11:56:43.290Z,100093.97
2023-04-01T11:59:56.314Z,100089.19
2023-04-01T12:03:01.001Z,100088.00
2023-04-01T12:05:48.323Z,100086.66
2023-04-01T12:08:33.246Z,100088.91
2023-04-01T12:11:16.974Z,100082.09
2023-04-01T12:14:25.321Z,100077.63
2023-04-01T12:20:10.213Z,100085.94
2023-04-01T12:22:51.519Z,100074.31
2023-04-01T12:25:57.357Z,100072.66
2023-04-01T12:28:53.974Z,100062.84
2023-04-01T12:31:35.617Z,100080.09
2023-04-01T12:34:14.648Z,100071.88
2023-04-01T12:37:01.044Z,100082.56
2023-04-01T12:39:41.350Z,100080.78
2023-04-01T12:43:02.360Z,100081.13
2023-04-01T12:46:00.088Z,100078.94
2023-04-01T12:48:42.644Z,100073.88
2023-04-01T12:51:41.095Z,100078.19
2023-04-01T12:54:46.415Z,100075.69
2023-04-01T12:57:50.948Z,100067.72
2023-04-01T13:00:56.852Z,100070.88
2023-04-01T13:03:41.435Z,100069.28
2023-04-01T13:06:29.750Z,100068.06
2023-04-01T13:09:52.292Z,100064.84
2023-04-01T13:13:07.304Z,100069.88
2023-04-01T13:15:40.555Z,100056.47
2023-04-01T13:18:12.302Z,100064.47
2023-04-01T13:21:07.373Z,100063.28
2023-04-01T13:23:49.232Z,100059.66
2023-04-01T13:26:37.236Z,100057.91
2023-04-01T13:29:40.919Z,100058.00
2023-04-01T13:32:33.322Z,100050.38
2023-04-01T13:35:35.249Z,100047.75
2023-04-01T13:38:39.996Z,100043.50
2023-04-01T13:41:50.624Z,100048.34
2023-04-01T13:44:49.540Z,100043.88
2023-04-01T13:47:31.984Z,100039.25
2023-04-01T13:50:36.871Z,100035.72
2023-04-01T13:53:41.604Z,100037.91
2023-04-01T13:56:17.868Z,100025.03
2023-04-01T13:59:09.283Z,100027.66
2023-04-01T14:01:49.190Z,100023.19
2023-04-01T14:04:39.111Z,100017.00
2023-04-01T14:07:28.080Z,100017.03
2023-04-01T14:10:26.767Z,100009.28
2023-04-01T14:13:16.237Z,100011.06
2023-04-01T14:16:06.106Z,100015.53
2023-04-01T14:18:40.763Z,100007.97
2023-04-01T14:21:46.124Z,100010.50
2023-04-01T14:24:24.865Z,100003.75
2023-04-01T14:27:10.865Z,100007.19
2023-04-01T14:30:33.671Z,100001.13
2023-04-01T14:33:48.781Z,100006.56
2023-04-01T14:36:38.379Z,99993.00
2023-04-01T14:39:32.102Z,99990.34
2023-04-01T14:42:59.287Z,99996.88
2023-04-01T14:45:35.082Z,99994.63
2023-04-01T14:48:29.641Z,99984.28
2023-04-01T14:51:40.531Z,99981.72
2023-04-01T14:54:38.830Z,99981.88
2023-04-01T15:00:29.452Z,99968.28
2023-04-01T15:03:09.244Z,99976.78
2023-04-01T15:06:13.411Z,99973.19
2023-04-01T15:09:07.265Z,99978.41
2023-04-01T15:12:12.422Z,99973.28
2023-04-01T15:14:59.757Z,99967.16
2023-04-01T15:17:45.459Z,99965.03
2023-04-01T15:20:34.046Z,99966.72
2023-04-01T15:23:41.435Z,99968.91
2023-04-01T15:26:56.287Z,99962.09
2023-04-01T15:30:27.701Z,99961.00
2023-04-01T15:33:15.580Z,99971.28
2023-04-01T15:35:57.587Z,99972.13
2023-04-01T15:38:36.971Z,99969.69
2023-04-01T15:41:09.102Z,99956.38
2023-04-01T15:43:50.121Z,99962.88
2023-04-01T15:46:23.184Z,99961.38
2023-04-01T15:49:06.135Z,99964.69
2023-04-01T15:52:11.742Z,99953.31
2023-04-01T15:55:21.802Z,99959.72
2023-04-01T15:58:27.555Z,99955.25
2023-04-01T16:01:09.518Z,99954.31
2023-04-01T16:04:20.077Z,99951.53
2023-04-01T16:07:11.412Z,99953.56
2023-04-01T16:09:56.149Z,99962.94
2023-04-01T16:12:48.264Z,99963.56
2023-04-01T16:15:56.076Z,99971.56
2023-04-01T16:19:02.234Z,99970.72
2023-04-01T16:21:49.103Z,99971.97
2023-04-01T16:25:02.854Z,99976.47
2023-04-01T16:28:26.530Z,99974.00
2023-04-01T16:31:01.652Z,99974.34
2023-04-01T16:33:58.923Z,99974.78
2023-04-01T16:36:59.240Z,99980.81
2023-04-01T16:40:03.935Z,99987.19
2023-04-01T16:42:49.125Z,99987.47
2023-04-01T16:46:04.243Z,99987.00
2023-04-01T16:49:10.238Z,99989.81
2023-04-01T16:51:42.181Z,99991.94
2023-04-01T16:54:33.176Z,99996.91
2023-04-01T16:57:08.886Z,99998.41
2023-04-01T16:59:55.133Z,99991.44
2023-04-01T17:02:37.054Z,99999.63
2023-04-01T17:05:17.166Z,99993.06
2023-04-01T17:08:05.760Z,99999.97
2023-04-01T17:11:09.416Z,99995.19
2023-04-01T17:14:00.467Z,100003.47
2023-04-01T17:17:06.330Z,100005.16
2023-04-01T17:20:12.501Z,100011.91
2023-04-01T17:22:53.052Z,100001.72
2023-04-01T17:25:41.829Z,100004.75
2023-04-01T17:28:35.099Z,100005.38
2023-04-01T17:31:23.428Z,100002.56
2023-04-01T17:34:19.588Z,100012.72
2023-04-01T17:37:23.887Z,100010.91
2023-04-01T17:40:09.540Z,100010.34
2023-04-01T17:42:54.627Z,100005.44
2023-04-01T17:45:58.062Z,100011.50
2023-04-01T17:48:56.460Z,100014.53
2023-04-01T17:52:08.047Z,100010.94
2023-04-01T17:58:37.989Z,100032.69
2023-04-01T18:01:20.215Z,100038.66
2023-04-01T18:03:59.882Z,100042.16
2023-04-01T18:07:04.932Z,100032.41
2023-04-01T18:10:05.254Z,100040.91
2023-04-01T18:12:55.289Z,100036.56
2023-04-01T18:16:06.439Z,100037.72
2023-04-01T18:19:04.299Z,100034.09
2023-04-01T18:21:34.293Z,100036.84
2023-04-01T18:24:32.267Z,100029.81
2023-04-01T18:27:52.715Z,100030.72
2023-04-01T18:30:30.376Z,100028.53
2023-04-01T18:33:18.296Z,100033.66
2023-04-01T18:36:00.324Z,100043.88
2023-04-01T18:38:44.643Z,100042.94
2023-04-01T18:41:25.801Z,100045.13
2023-04-01T18:44:27.771Z,100048.88
2023-04-01T18:47:44.104Z,100055.75
2023-04-01T18:50:38.920Z,100062.63
2023-04-01T18:53:37.502Z,100056.66
2023-04-01T18:56:09.146Z,100071.56
2023-04-01T18:58:38.165Z,100066.44
2023-04-01T19:01:30.231Z,100061.31
2023-04-01T19:04:13.125Z,100064.91
2023-04-01T19:07:00.316Z,100074.34
2023-04-01T19:10:00.328Z,100074.34
2023-04-01T19:12:32.723Z,100071.78
2023-04-01T19:15:25.825Z,100078.13
2023-04-01T19:18:15.389Z,100077.19
2023-04-01T19:21:12.051Z,100075.97
2023-04-01T19:24:00.004Z,100071.88
2023-04-01T19:26:50.870Z,100070.91
2023-04-01T19:29:52.159Z,100074.03
2023-04-01T19:32:48.683Z,100077.63
2023-04-01T19:35:47.499Z,100077.63
2023-04-01T19:38:36.854Z,100074.81
2023-04-01T19:41:41.012Z,100084.31
2023-04-01T19:44:57.889Z,100076.97
2023-04-01T19:48:01.382Z,100082.78
2023-04-01T19:51:11.211Z,100083.25
2023-04-01T19:53:52.988Z,100090.06
2023-04-01T19:56:38.744Z,100083.66
2023-04-01T19:59:22.560Z,100082.34
2023-04-01T20:02:29.672Z,100085.78
2023-04-01T20:05:15.321Z,100076.78
2023-04-01T20:08:23.141Z,100076.13
2023-04-01T20:11:06.868Z,100077.56
2023-04-01T20:13:54.033Z,100077.56
2023-04-01T20:16:30.325Z,100080.81
2023-04-01T20:19:03.566Z,100076.88
2023-04-01T20:21:48.336Z,100071.38
2023-04-01T20:24:30.354Z,100065.16
2023-04-01T20:27:25.226Z,100076.22
2023-04-01T20:30:12.069Z,100070.28
2023-04-01T20:33:15.495Z,100071.56
2023-04-01T20:36:01.819Z,100071.16
2023-04-01T20:38:32.011Z,100075.25
2023-04-01T20:41:14.449Z,100075.94
2023-04-01T20:44:13.755Z,100070.91
2023-04-01T20:46:52.887Z,100083.66
2023-04-01T20:49:26.260Z,100074.31
2023-04-01T20:52:10.129Z,100069.28
2023-04-01T20:54:46.450Z,100074.41
2023-04-01T20:57:25.994Z,100073.38
2023-04-01T21:00:10.082Z,100077.47
2023-04-01T21:03:23.293Z,100093.22
2023-04-01T21:05:52.697Z,100090.91
2023-04-01T21:08:41.815Z,100094.66
2023-04-01T21:11:16.072Z,100087.06
2023-04-01T21:14:10.861Z,100095.78
2023-04-01T21:17:06.993Z,100088.47
2023-04-01T21:20:15.038Z,100099.69
2023-04-01T21:23:32.735Z,100100.44
2023-04-01T21:26:39.806Z,100090.78
2023-04-01T21:29:35.548Z,100097.88
2023-04-01T21:32:37.765Z,100093.69
2023-04-01T21:35:35.438Z,100093.19
2023-04-01T21:38:23.991Z,100097.47
2023-04-01T21:41:06.760Z,100096.59
2023-04-01T21:43:43.461Z,100101.56
2023-04-01T21:46:29.306Z,100100.69
2023-04-01T21:49:52.772Z,100101.72
2023-04-01T21:53:19.393Z,100098.31
2023-04-01T21:56:31.032Z,100103.28
2023-04-01T21:59:40.752Z,100104.88
2023-04-01T22:02:52.831Z,100101.13
2023-04-01T22:05:41.594Z,100105.31
2023-04-01T22:08:33.600Z,100106.34
2023-04-01T22:11:24.322Z,100103.13
2023-04-01T22:14:13.727Z,100099.69
2023-04-01T22:16:49.072Z,100101.56
2023-04-01T22:19:27.991Z,100096.06
2023-04-01T22:22:40.777Z,100094.53
2023-04-01T22:25:27.529Z,100103.63
2023-04-01T22:28:04.474Z,100098.03
2023-04-01T22:30:51.469Z,100096.59
2023-04-01T22:36:41.241Z,100094.53
2023-04-01T22:39:59.974Z,100093.19
2023-04-01T22:42:45.892Z,100090.88
2023-04-01T22:45:38.239Z,100089.59
2023-04-01T22:48:54.514Z,100094.88
2023-04-01T22:52:01.425Z,100097.53
2023-04-01T22:54:57.747Z,100100.16
2023-04-01T22:57:41.494Z,100095.88
2023-04-01T23:00:29.180Z,100092.75
2023-04-01T23:03:16.514Z,100097.41
2023-04-01T23:06:00.221Z,100098.81
2023-04-01T23:08:36.336Z,100097.25
2023-04-01T23:11:18.504Z,100099.78
2023-04-01T23:14:33.402Z,100096.63
2023-04-01T23:17:31.536Z,100103.38
2023-04-01T23:20:25.398Z,100097.19
2023-04-01T23:23:10.600Z,100097.41
2023-04-01T23:26:30.383Z,100101.72
2023-04-01T23:29:18.829Z,100091.50
2023-04-01T23:31:51.508Z,100090.59
2023-04-01T23:34:37.685Z,100095.66
2023-04-01T23:37:18.106Z,100087.31
2023-04-01T23:39:57.203Z,100100.09
2023-04-01T23:42:31.511Z,100092.44
2023-04-01T23:45:24.867Z,100093.81
2023-04-01T23:48:02.882Z,100092.63
2023-04-01T23:50:29.944Z,100091.84
2023-04-01T23:53:05.041Z,100085.28
2023-04-01T23:55:38.006Z,100088.78
2023-04-01T23:58:17.611Z,100079.97
